Time;durP1;ratioP1;P1;durP2;ratioP2;P2;SDS_P1;SDS_P2;PMS_P1;PMS_P2;Temp;Humidity;BMP_temperature;BMP_pressure;BME280_temperature;BME280_humidity;BME280_pressure;Samples;Min_cycle;Max_cycle;Signal;HPM_P1;HPM_P2
2022/05/18 00:00:54;;;;;;;6.45;4.28;;;;;;;;;;4887783;29;20096;-79
2022/05/18 00:03:23;;;;;;;4.70;4.35;;;;;;;;;;4896217;29;20045;-79
2022/05/18 00:05:51;;;;;;;5.25;4.63;;;;;;;;;;4895641;29;20048;-79
2022/05/18 00:08:18;;;;;;;4.90;4.50;;;;;;;;;;4879336;29;20048;-79
2022/05/18 00:10:47;;;;;;;7.47;4.90;;;;;;;;;;4868007;29;20060;-79
2022/05/18 00:13:15;;;;;;;5.22;4.80;;;;;;;;;;4905212;29;20112;-79
2022/05/18 00:15:43;;;;;;;4.68;4.28;;;;;;;;;;4910620;29;20060;-80
2022/05/18 00:18:11;;;;;;;5.35;4.85;;;;;;;;;;4880287;29;20056;-80
2022/05/18 00:20:38;;;;;;;5.90;4.90;;;;;;;;;;4893451;29;20464;-79
2022/05/18 00:23:06;;;;;;;5.38;4.97;;;;;;;;;;4895542;29;20503;-80
2022/05/18 00:25:35;;;;;;;5.00;4.60;;;;;;;;;;4896809;29;20044;-80
2022/05/18 00:28:03;;;;;;;6.57;5.03;;;;;;;;;;4896794;29;20071;-79
2022/05/18 00:30:31;;;;;;;9.00;5.32;;;;;;;;;;4897468;29;20120;-80
2022/05/18 00:33:03;;;;;;;9.07;5.07;;;;;;;;;;4896570;29;20518;-79
2022/05/18 00:35:31;;;;;;;6.78;5.50;;;;;;;;;;4895179;29;20751;-79
2022/05/18 00:37:58;;;;;;;5.72;5.25;;;;;;;;;;4901200;29;20040;-79
2022/05/18 00:40:25;;;;;;;5.95;5.32;;;;;;;;;;4882482;29;20067;-79
2022/05/18 00:42:52;;;;;;;6.18;5.38;;;;;;;;;;4897913;29;20758;-79
2022/05/18 00:45:20;;;;;;;5.45;4.95;;;;;;;;;;4885639;29;20060;-79
2022/05/18 00:47:48;;;;;;;6.82;5.00;;;;;;;;;;4908782;29;20052;-79
2022/05/18 00:50:22;;;;;;;6.82;6.13;;;;;;;;;;4882978;29;20122;-79
2022/05/18 00:52:52;;;;;;;6.13;5.07;;;;;;;;;;4893920;29;20116;-80
2022/05/18 00:55:22;;;;;;;6.15;5.57;;;;;;;;;;4877779;29;20076;-79
2022/05/18 00:57:52;;;;;;;6.40;5.45;;;;;;;;;;4902795;29;20086;-79
2022/05/18 01:00:20;;;;;;;5.68;5.18;;;;;;;;;;4891515;29;20067;-79
2022/05/18 01:02:51;;;;;;;6.78;5.85;;;;;;;;;;4907353;29;20048;-80
2022/05/18 01:05:21;;;;;;;6.15;5.30;;;;;;;;;;4895813;29;20044;-79
2022/05/18 01:07:50;;;;;;;7.13;5.50;;;;;;;;;;4895673;29;20040;-80
2022/05/18 01:10:18;;;;;;;8.30;5.97;;;;;;;;;;4895920;29;20065;-79
2022/05/18 01:12:46;;;;;;;7.13;5.88;;;;;;;;;;4895410;29;20040;-79
2022/05/18 01:15:18;;;;;;;6.38;5.88;;;;;;;;;;4894075;29;20051;-79
2022/05/18 01:17:47;;;;;;;6.43;5.82;;;;;;;;;;4885157;29;20049;-79
2022/05/18 01:20:21;;;;;;;6.70;6.00;;;;;;;;;;4876278;29;20053;-79
2022/05/18 01:23:01;;;;;;;7.57;6.72;;;;;;;;;;4894658;29;20048;-79
2022/05/18 01:25:28;;;;;;;6.88;6.28;;;;;;;;;;4889631;29;20074;-79
2022/05/18 01:27:57;;;;;;;10.02;6.65;;;;;;;;;;4903420;29;20125;-79
2022/05/18 01:30:24;;;;;;;9.98;6.93;;;;;;;;;;4865383;29;20060;-79
2022/05/18 01:32:53;;;;;;;6.95;6.25;;;;;;;;;;4914298;29;20044;-79
2022/05/18 01:35:23;;;;;;;6.78;6.18;;;;;;;;;;4912424;29;20068;-80
2022/05/18 01:37:51;;;;;;;6.50;6.00;;;;;;;;;;4914176;29;20072;-80
2022/05/18 01:40:23;;;;;;;6.50;5.90;;;;;;;;;;4900314;29;20048;-79
2022/05/18 01:42:54;;;;;;;6.35;5.75;;;;;;;;;;4896853;29;20107;-80
2022/05/18 01:45:22;;;;;;;6.63;6.10;;;;;;;;;;4903377;29;20036;-79
2022/05/18 01:47:50;;;;;;;6.90;6.20;;;;;;;;;;4935183;29;20046;-80
2022/05/18 01:50:21;;;;;;;6.65;6.10;;;;;;;;;;4929901;29;20047;-79
2022/05/18 01:52:49;;;;;;;6.47;5.87;;;;;;;;;;4899045;29;20624;-79
2022/05/18 01:55:17;;;;;;;6.32;5.72;;;;;;;;;;4915834;29;20044;-79
2022/05/18 01:57:45;;;;;;;5.72;5.22;;;;;;;;;;4915807;29;20063;-79
2022/05/18 02:00:13;;;;;;;6.20;5.75;;;;;;;;;;4902306;29;20776;-79
2022/05/18 02:02:41;;;;;;;6.80;5.90;;;;;;;;;;4898848;29;20067;-80
2022/05/18 02:05:09;;;;;;;5.97;5.57;;;;;;;;;;4915807;29;20048;-79
2022/05/18 02:07:37;;;;;;;6.03;5.57;;;;;;;;;;4898933;29;20108;-79
2022/05/18 02:10:04;;;;;;;5.50;5.10;;;;;;;;;;4887296;29;20049;-79
2022/05/18 02:12:33;;;;;;;6.55;4.78;;;;;;;;;;4915039;29;20076;-79
2022/05/18 02:15:00;;;;;;;7.25;5.30;;;;;;;;;;4933243;29;20052;-79
2022/05/18 02:17:28;;;;;;;5.88;5.38;;;;;;;;;;4925644;29;20047;-79
2022/05/18 02:19:56;;;;;;;6.50;5.38;;;;;;;;;;4897286;29;20060;-79
2022/05/18 02:22:24;;;;;;;5.90;5.40;;;;;;;;;;4913714;29;20399;-79
2022/05/18 02:24:51;;;;;;;5.60;5.10;;;;;;;;;;4891749;29;20052;-79
2022/05/18 02:27:19;;;;;;;6.25;5.65;;;;;;;;;;4862233;29;20052;-80
2022/05/18 02:29:46;;;;;;;6.18;5.15;;;;;;;;;;4879904;29;20115;-80
2022/05/18 02:32:13;;;;;;;6.90;5.47;;;;;;;;;;4894422;29;20048;-79
2022/05/18 02:34:41;;;;;;;6.22;5.63;;;;;;;;;;4896533;29;20546;-79
2022/05/18 02:37:08;;;;;;;6.40;5.80;;;;;;;;;;4895946;29;20051;-79
2022/05/18 02:39:35;;;;;;;7.22;5.22;;;;;;;;;;4894934;29;20055;-79
2022/05/18 02:42:03;;;;;;;5.43;4.88;;;;;;;;;;4895400;29;20048;-79
2022/05/18 02:44:30;;;;;;;6.03;5.50;;;;;;;;;;4896616;29;20044;-79
2022/05/18 02:46:59;;;;;;;5.90;5.40;;;;;;;;;;4894636;29;20045;-79
2022/05/18 02:49:27;;;;;;;7.10;6.50;;;;;;;;;;4888840;29;20100;-80
2022/05/18 02:51:55;;;;;;;7.82;6.72;;;;;;;;;;4891335;29;20055;-79
2022/05/18 02:57:09;;;;;;;7.13;6.30;;;;;;;;;;4895384;29;20048;-79
2022/05/18 02:59:36;;;;;;;6.50;5.90;;;;;;;;;;4856642;29;20503;-79
2022/05/18 03:02:04;;;;;;;7.35;6.65;;;;;;;;;;4893228;29;20059;-78
2022/05/18 03:04:31;;;;;;;7.35;6.65;;;;;;;;;;4896630;29;20049;-78
2022/05/18 03:06:59;;;;;;;7.63;6.10;;;;;;;;;;4895998;29;20145;-78
2022/05/18 03:09:27;;;;;;;7.28;6.63;;;;;;;;;;4888913;29;20040;-78
2022/05/18 03:11:55;;;;;;;6.97;6.38;;;;;;;;;;4892515;29;20045;-79
2022/05/18 03:14:22;;;;;;;9.55;6.63;;;;;;;;;;4901663;29;20522;-83
2022/05/18 03:16:50;;;;;;;10.88;7.22;;;;;;;;;;4895197;29;20049;-79
2022/05/18 03:19:17;;;;;;;7.75;6.85;;;;;;;;;;4906013;29;20059;-79
2022/05/18 03:24:30;;;;;;;8.75;7.85;;;;;;;;;;4887464;29;20045;-78
2022/05/18 03:26:58;;;;;;;6.68;6.05;;;;;;;;;;4892272;29;20075;-79
2022/05/18 03:29:25;;;;;;;10.23;7.50;;;;;;;;;;4897085;29;20037;-79
2022/05/18 03:31:53;;;;;;;7.88;7.15;;;;;;;;;;4896902;29;20049;-79
2022/05/18 03:34:20;;;;;;;8.57;7.18;;;;;;;;;;4900006;29;20059;-80
2022/05/18 03:36:47;;;;;;;8.60;7.70;;;;;;;;;;4898570;29;20059;-79
2022/05/18 03:39:15;;;;;;;9.63;7.55;;;;;;;;;;4878319;29;20072;-79
2022/05/18 03:41:43;;;;;;;9.40;8.40;;;;;;;;;;4873569;29;20059;-79
2022/05/18 03:44:10;;;;;;;9.65;7.47;;;;;;;;;;4895580;29;20041;-80
2022/05/18 03:46:37;;;;;;;8.02;7.28;;;;;;;;;;4879789;29;20065;-79
2022/05/18 03:49:05;;;;;;;9.30;8.10;;;;;;;;;;4877155;29;20101;-79
2022/05/18 03:51:32;;;;;;;8.10;7.30;;;;;;;;;;4888740;29;20049;-80
2022/05/18 03:54:00;;;;;;;10.77;8.40;;;;;;;;;;4897852;29;20059;-79
2022/05/18 03:56:27;;;;;;;9.88;8.02;;;;;;;;;;4899301;29;20052;-78
2022/05/18 03:58:54;;;;;;;8.70;7.90;;;;;;;;;;4901254;29;20059;-79
2022/05/18 04:01:22;;;;;;;9.70;8.38;;;;;;;;;;4882248;29;20045;-79
2022/05/18 04:03:49;;;;;;;10.50;8.50;;;;;;;;;;4900119;29;20087;-78
2022/05/18 04:06:17;;;;;;;10.15;8.45;;;;;;;;;;4906440;29;20036;-79
2022/05/18 04:08:45;;;;;;;9.18;7.63;;;;;;;;;;4900009;29;20081;-79
2022/05/18 04:11:13;;;;;;;11.90;8.45;;;;;;;;;;4898447;29;20136;-80
2022/05/18 04:13:40;;;;;;;10.15;8.77;;;;;;;;;;4908822;29;20151;-79
2022/05/18 04:16:09;;;;;;;9.85;8.63;;;;;;;;;;4905230;29;20061;-84
2022/05/18 04:18:37;;;;;;;9.27;8.38;;;;;;;;;;4902970;29;20044;-79
2022/05/18 04:21:06;;;;;;;11.88;8.30;;;;;;;;;;4888257;29;20082;-80
2022/05/18 04:23:33;;;;;;;10.52;8.32;;;;;;;;;;4892673;29;20044;-80
2022/05/18 04:26:01;;;;;;;9.27;8.38;;;;;;;;;;4903054;29;20040;-79
2022/05/18 04:28:28;;;;;;;9.18;8.30;;;;;;;;;;4887210;29;20068;-79
2022/05/18 04:30:55;;;;;;;9.40;7.70;;;;;;;;;;4880135;29;20056;-80
2022/05/18 04:33:23;;;;;;;9.55;7.95;;;;;;;;;;4868066;29;20054;-79
2022/05/18 04:35:51;;;;;;;9.55;8.15;;;;;;;;;;4880347;29;20052;-79
2022/05/18 04:38:19;;;;;;;11.10;8.02;;;;;;;;;;4873726;29;20060;-80
2022/05/18 04:40:54;;;;;;;8.85;8.02;;;;;;;;;;4880582;29;20052;-81
2022/05/18 04:43:21;;;;;;;8.82;8.02;;;;;;;;;;4890424;29;20048;-79
2022/05/18 04:45:51;;;;;;;11.13;7.75;;;;;;;;;;4877443;29;20048;-80
2022/05/18 04:48:19;;;;;;;8.10;7.20;;;;;;;;;;4878073;29;20425;-79
2022/05/18 04:50:50;;;;;;;8.13;7.25;;;;;;;;;;4876293;29;20483;-79
2022/05/18 04:53:18;;;;;;;9.23;7.70;;;;;;;;;;4893784;29;20480;-78
2022/05/18 04:55:45;;;;;;;7.00;6.40;;;;;;;;;;4895794;29;20052;-79
2022/05/18 04:58:13;;;;;;;8.85;6.40;;;;;;;;;;4892250;29;20049;-79
2022/05/18 05:00:43;;;;;;;7.85;6.57;;;;;;;;;;4877011;29;20668;-79
2022/05/18 05:03:11;;;;;;;7.03;6.43;;;;;;;;;;4891372;29;20518;-79
2022/05/18 05:05:39;;;;;;;7.03;6.53;;;;;;;;;;4896302;29;20118;-80
2022/05/18 05:08:07;;;;;;;7.28;6.68;;;;;;;;;;4899653;29;20056;-80
2022/05/18 05:10:41;;;;;;;7.45;6.80;;;;;;;;;;4895767;29;20108;-79
2022/05/18 05:13:09;;;;;;;7.03;6.32;;;;;;;;;;4879323;29;20080;-81
2022/05/18 05:15:37;;;;;;;7.55;6.85;;;;;;;;;;4934225;23;20055;-79
2022/05/18 05:18:05;;;;;;;7.47;6.78;;;;;;;;;;4933866;29;20056;-81
2022/05/18 05:20:32;;;;;;;7.53;6.80;;;;;;;;;;4917894;29;20063;-80
2022/05/18 05:22:59;;;;;;;7.47;6.88;;;;;;;;;;4919794;29;20035;-80
2022/05/18 05:25:27;;;;;;;7.43;6.68;;;;;;;;;;4919145;28;20071;-83
2022/05/18 05:27:55;;;;;;;7.70;7.00;;;;;;;;;;4933964;29;20501;-78
2022/05/18 05:30:23;;;;;;;9.00;6.45;;;;;;;;;;4932677;29;20032;-79
2022/05/18 05:32:50;;;;;;;6.93;6.32;;;;;;;;;;4938288;29;20150;-79
2022/05/18 05:35:17;;;;;;;13.82;6.57;;;;;;;;;;4932502;29;20129;-79
2022/05/18 05:37:45;;;;;;;6.47;6.03;;;;;;;;;;4932859;29;20043;-79
2022/05/18 05:40:12;;;;;;;6.30;5.90;;;;;;;;;;4916008;29;20107;-79
2022/05/18 05:42:40;;;;;;;8.85;6.72;;;;;;;;;;4916370;29;20055;-79
2022/05/18 05:45:08;;;;;;;6.88;6.18;;;;;;;;;;4915393;29;20099;-79
2022/05/18 05:47:35;;;;;;;7.63;7.03;;;;;;;;;;4932536;29;20676;-79
2022/05/18 05:50:10;;;;;;;8.90;6.57;;;;;;;;;;4932814;29;20050;-79
2022/05/18 05:52:37;;;;;;;9.13;7.18;;;;;;;;;;4932663;29;20043;-79
2022/05/18 05:55:05;;;;;;;7.35;6.38;;;;;;;;;;4914281;29;20166;-79
2022/05/18 05:57:33;;;;;;;6.85;5.43;;;;;;;;;;4932598;29;20048;-81
2022/05/18 06:00:02;;;;;;;6.78;5.97;;;;;;;;;;4933426;29;20044;-80
2022/05/18 06:02:38;;;;;;;6.60;6.07;;;;;;;;;;4916535;29;20040;-79
2022/05/18 06:05:10;;;;;;;5.57;5.07;;;;;;;;;;4900303;29;20047;-79
2022/05/18 06:07:37;;;;;;;5.60;5.10;;;;;;;;;;4935459;29;20135;-81
2022/05/18 06:10:05;;;;;;;5.55;5.05;;;;;;;;;;4935853;29;20044;-81
2022/05/18 06:12:32;;;;;;;5.47;5.03;;;;;;;;;;4937155;29;20047;-80
2022/05/18 06:15:00;;;;;;;5.50;5.00;;;;;;;;;;4919371;29;20069;-80
2022/05/18 06:17:28;;;;;;;4.85;4.40;;;;;;;;;;4920085;29;20437;-80
2022/05/18 06:19:55;;;;;;;4.85;4.45;;;;;;;;;;4936715;29;20407;-80
2022/05/18 06:22:22;;;;;;;4.75;4.35;;;;;;;;;;4945829;29;20135;-80
2022/05/18 06:24:51;;;;;;;4.97;4.47;;;;;;;;;;4949669;28;20054;-81
2022/05/18 06:27:19;;;;;;;6.07;4.60;;;;;;;;;;4943897;29;20047;-82
2022/05/18 06:29:48;;;;;;;4.60;4.30;;;;;;;;;;4934988;29;20043;-82
2022/05/18 06:32:16;;;;;;;6.72;4.38;;;;;;;;;;4919983;29;20044;-81
2022/05/18 06:34:44;;;;;;;4.70;3.90;;;;;;;;;;4912255;29;20043;-80
2022/05/18 06:37:13;;;;;;;6.32;3.85;;;;;;;;;;4926962;29;20390;-80
2022/05/18 06:39:40;;;;;;;4.95;3.60;;;;;;;;;;4934791;29;20330;-79
2022/05/18 06:42:08;;;;;;;3.60;3.00;;;;;;;;;;4927215;29;20054;-80
2022/05/18 06:44:42;;;;;;;6.78;2.97;;;;;;;;;;4919283;29;20173;-80
2022/05/18 06:47:09;;;;;;;3.03;2.72;;;;;;;;;;4908993;29;20099;-80
2022/05/18 06:49:37;;;;;;;2.50;2.40;;;;;;;;;;4917225;29;20050;-79
2022/05/18 06:52:04;;;;;;;2.67;2.47;;;;;;;;;;4937773;29;20453;-80
2022/05/18 06:54:34;;;;;;;2.60;2.00;;;;;;;;;;4921248;29;20039;-80
2022/05/18 06:57:19;;;;;;;2.63;2.20;;;;;;;;;;4939804;29;20052;-83
2022/05/18 06:59:50;;;;;;;2.67;2.10;;;;;;;;;;4920600;29;20051;-80
2022/05/18 07:02:17;;;;;;;3.83;2.10;;;;;;;;;;4936720;29;20047;-79
2022/05/18 07:04:45;;;;;;;3.05;1.92;;;;;;;;;;4941784;29;20241;-79
2022/05/18 07:07:17;;;;;;;4.13;1.85;;;;;;;;;;4939668;28;20084;-79
2022/05/18 07:09:45;;;;;;;2.35;1.58;;;;;;;;;;4942422;29;20099;-79
2022/05/18 07:12:12;;;;;;;3.90;1.50;;;;;;;;;;4919661;29;20059;-79
2022/05/18 07:14:40;;;;;;;2.80;1.50;;;;;;;;;;4921049;29;20048;-80
2022/05/18 07:17:08;;;;;;;2.95;1.60;;;;;;;;;;4921268;29;20047;-81
2022/05/18 07:19:35;;;;;;;3.90;1.83;;;;;;;;;;4922236;29;20051;-80
2022/05/18 07:22:05;;;;;;;1.50;1.40;;;;;;;;;;4945726;29;20147;-81
2022/05/18 07:24:32;;;;;;;2.63;1.50;;;;;;;;;;4940515;29;20079;-81
2022/05/18 07:27:00;;;;;;;3.33;1.67;;;;;;;;;;4937028;29;20094;-81
2022/05/18 07:29:27;;;;;;;3.80;2.20;;;;;;;;;;4960242;28;20265;-81
2022/05/18 07:32:12;;;;;;;1.50;1.40;;;;;;;;;;4930528;29;20394;-81
2022/05/18 07:34:40;;;;;;;3.20;2.05;;;;;;;;;;4958649;28;20098;-80
2022/05/18 07:37:08;;;;;;;2.42;1.67;;;;;;;;;;4958097;29;20049;-81
2022/05/18 07:39:36;;;;;;;1.30;1.20;;;;;;;;;;4948289;28;20111;-80
2022/05/18 07:42:05;;;;;;;5.20;1.42;;;;;;;;;;4940761;29;20139;-81
2022/05/18 07:44:33;;;;;;;1.13;1.10;;;;;;;;;;4924682;29;20134;-79
2022/05/18 07:47:02;;;;;;;1.50;1.40;;;;;;;;;;4948682;29;20047;-81
2022/05/18 07:49:40;;;;;;;2.88;1.33;;;;;;;;;;4934959;29;20036;-81
2022/05/18 07:52:10;;;;;;;1.83;1.30;;;;;;;;;;4935409;29;20051;-81
2022/05/18 07:54:37;;;;;;;2.30;1.95;;;;;;;;;;4937061;29;20052;-81
2022/05/18 07:57:08;;;;;;;1.25;1.13;;;;;;;;;;4934704;29;20077;-77
2022/05/18 07:59:36;;;;;;;3.33;1.13;;;;;;;;;;4955255;29;20048;-81
2022/05/18 08:02:04;;;;;;;2.78;1.63;;;;;;;;;;4940424;29;20054;-80
2022/05/18 08:04:31;;;;;;;3.33;1.50;;;;;;;;;;4921120;29;20083;-81
2022/05/18 08:06:59;;;;;;;1.42;1.35;;;;;;;;;;4934406;29;20506;-81
2022/05/18 08:09:26;;;;;;;4.88;1.52;;;;;;;;;;4956979;28;20047;-81
2022/05/18 08:17:26;;;;;;;1.60;1.27;;;;;;;;;;4937670;29;20548;-83
2022/05/18 08:19:54;;;;;;;3.38;1.70;;;;;;;;;;4920732;29;20051;-81
2022/05/18 08:22:21;;;;;;;2.20;1.55;;;;;;;;;;4954676;29;20517;-81
2022/05/18 08:24:49;;;;;;;3.38;1.45;;;;;;;;;;4940077;28;20047;-80
2022/05/18 08:27:17;;;;;;;1.55;1.42;;;;;;;;;;4957011;28;20051;-83
2022/05/18 08:29:44;;;;;;;1.50;1.20;;;;;;;;;;4956603;28;20051;-81
2022/05/18 08:32:12;;;;;;;1.80;1.20;;;;;;;;;;4924659;29;20102;-81
2022/05/18 08:34:39;;;;;;;1.48;1.20;;;;;;;;;;4957367;29;20051;-83
2022/05/18 08:37:07;;;;;;;3.00;1.42;;;;;;;;;;4923601;29;20150;-81
2022/05/18 08:39:34;;;;;;;1.88;1.33;;;;;;;;;;4957582;29;20066;-81
2022/05/18 08:42:02;;;;;;;1.60;1.50;;;;;;;;;;4956779;29;20150;-82
2022/05/18 08:44:32;;;;;;;2.15;1.30;;;;;;;;;;4957942;29;20044;-81
2022/05/18 08:47:00;;;;;;;2.25;2.05;;;;;;;;;;4939245;29;20118;-81
2022/05/18 08:49:33;;;;;;;2.78;1.35;;;;;;;;;;4958671;29;20058;-81
2022/05/18 08:52:03;;;;;;;3.63;1.60;;;;;;;;;;4956907;29;20047;-81
2022/05/18 08:54:43;;;;;;;4.95;1.40;;;;;;;;;;4955743;28;20086;-81
2022/05/18 08:57:21;;;;;;;7.93;1.52;;;;;;;;;;4955990;29;20062;-82
2022/05/18 08:59:54;;;;;;;2.05;1.50;;;;;;;;;;4939920;29;20170;-83
2022/05/18 09:02:30;;;;;;;2.03;1.40;;;;;;;;;;4956704;28;20478;-82
2022/05/18 09:05:07;;;;;;;1.95;1.45;;;;;;;;;;4939053;28;20062;-82
2022/05/18 09:07:53;;;;;;;1.50;1.40;;;;;;;;;;4938560;28;20624;-81
2022/05/18 09:10:30;;;;;;;3.55;1.60;;;;;;;;;;4955904;29;20465;-82
2022/05/18 09:12:57;;;;;;;2.88;1.17;;;;;;;;;;4930256;29;20078;-83
2022/05/18 09:15:51;;;;;;;1.83;1.42;;;;;;;;;;4919274;29;20075;-82
2022/05/18 09:18:19;;;;;;;1.65;1.40;;;;;;;;;;4934875;29;20540;-81
2022/05/18 09:21:08;;;;;;;5.25;1.50;;;;;;;;;;4937618;29;20135;-81
2022/05/18 09:23:44;;;;;;;1.80;1.50;;;;;;;;;;4936100;29;20116;-81
2022/05/18 09:26:23;;;;;;;6.00;1.67;;;;;;;;;;4938452;29;20418;-81
2022/05/18 09:28:58;;;;;;;1.98;1.73;;;;;;;;;;4935844;29;20163;-81
2022/05/18 09:31:29;;;;;;;2.83;1.58;;;;;;;;;;4933563;29;20146;-80
2022/05/18 09:34:16;;;;;;;2.47;1.50;;;;;;;;;;4903720;29;20055;-85
2022/05/18 09:37:02;;;;;;;5.35;1.63;;;;;;;;;;4934501;29;20116;-81
2022/05/18 09:39:32;;;;;;;1.25;1.10;;;;;;;;;;4938437;29;20126;-82
2022/05/18 09:42:03;;;;;;;4.30;2.15;;;;;;;;;;4933139;29;20047;-80
2022/05/18 09:44:41;;;;;;;3.55;1.73;;;;;;;;;;4934247;29;20600;-80
2022/05/18 09:47:10;;;;;;;2.78;1.50;;;;;;;;;;4951381;29;20050;-80
2022/05/18 09:49:44;;;;;;;1.60;1.50;;;;;;;;;;4953182;28;20133;-80
2022/05/18 09:52:13;;;;;;;1.92;1.50;;;;;;;;;;4920163;29;20039;-80
2022/05/18 09:54:41;;;;;;;1.80;1.50;;;;;;;;;;4919059;29;20051;-81
2022/05/18 09:57:14;;;;;;;1.33;1.20;;;;;;;;;;4950668;28;20540;-82
2022/05/18 09:59:47;;;;;;;1.45;1.27;;;;;;;;;;4954631;28;20043;-81
2022/05/18 10:07:57;;;;;;;2.47;1.40;;;;;;;;;;4939501;29;20102;-81
2022/05/18 10:10:32;;;;;;;1.15;1.10;;;;;;;;;;4941623;29;20425;-82
2022/05/18 10:13:03;;;;;;;2.03;1.45;;;;;;;;;;4940124;29;20072;-80
2022/05/18 10:16:00;;;;;;;3.97;1.88;;;;;;;;;;4946063;29;20043;-81
2022/05/18 10:18:46;;;;;;;1.58;1.20;;;;;;;;;;4923566;29;20047;-80
2022/05/18 10:21:23;;;;;;;1.85;1.48;;;;;;;;;;4950462;29;20075;-81
2022/05/18 10:23:58;;;;;;;2.08;1.40;;;;;;;;;;4925631;29;20161;-82
2022/05/18 10:26:31;;;;;;;2.60;1.65;;;;;;;;;;4927285;29;20058;-82
2022/05/18 10:29:00;;;;;;;1.80;1.40;;;;;;;;;;4923632;29;20039;-80
2022/05/18 10:31:30;;;;;;;1.40;1.30;;;;;;;;;;4934356;29;20048;-81
2022/05/18 10:34:17;;;;;;;2.40;1.50;;;;;;;;;;4936587;29;20462;-79
2022/05/18 10:36:52;;;;;;;2.30;1.27;;;;;;;;;;4951974;29;20086;-81
2022/05/18 10:39:37;;;;;;;1.50;1.40;;;;;;;;;;4950652;29;20063;-80
2022/05/18 10:42:10;;;;;;;1.77;1.40;;;;;;;;;;4938139;29;20043;-80
2022/05/18 10:44:37;;;;;;;2.22;1.40;;;;;;;;;;4922420;29;20048;-81
2022/05/18 10:47:18;;;;;;;1.60;1.20;;;;;;;;;;4923966;29;20067;-83
2022/05/18 10:49:46;;;;;;;1.17;1.05;;;;;;;;;;4936545;29;20421;-81
2022/05/18 10:52:18;;;;;;;1.58;1.40;;;;;;;;;;4938007;29;20080;-81
2022/05/18 10:54:54;;;;;;;4.22;1.50;;;;;;;;;;4919949;29;20056;-82
2022/05/18 10:57:27;;;;;;;1.88;1.40;;;;;;;;;;4937619;29;20386;-81
2022/05/18 10:59:55;;;;;;;1.35;1.25;;;;;;;;;;4939139;29;20430;-80
2022/05/18 11:02:31;;;;;;;4.68;1.10;;;;;;;;;;4922077;29;20048;-82
2022/05/18 11:05:05;;;;;;;3.40;1.38;;;;;;;;;;4938460;29;20463;-83
2022/05/18 11:07:33;;;;;;;2.45;1.55;;;;;;;;;;4907718;29;20557;-80
2022/05/18 11:10:01;;;;;;;1.95;1.17;;;;;;;;;;4940145;29;20099;-81
2022/05/18 11:12:49;;;;;;;1.23;1.13;;;;;;;;;;4923473;29;20451;-82
2022/05/18 11:15:41;;;;;;;1.48;1.10;;;;;;;;;;4952032;23;20058;-85
2022/05/18 11:18:09;;;;;;;3.45;1.45;;;;;;;;;;4929603;28;20085;-86
2022/05/18 11:20:55;;;;;;;5.00;1.33;;;;;;;;;;4941110;28;20058;-86
2022/05/18 11:23:31;;;;;;;1.50;1.40;;;;;;;;;;4956073;28;20858;-85
2022/05/18 11:25:59;;;;;;;1.23;1.10;;;;;;;;;;4972996;28;20146;-86
2022/05/18 11:28:55;;;;;;;2.80;1.50;;;;;;;;;;4941452;29;20039;-87
2022/05/18 11:31:35;;;;;;;4.43;1.30;;;;;;;;;;4954175;28;20519;-87
2022/05/18 11:34:03;;;;;;;1.88;1.30;;;;;;;;;;4951828;28;20055;-84
2022/05/18 11:36:40;;;;;;;3.83;1.58;;;;;;;;;;4951663;28;20066;-85
2022/05/18 11:39:11;;;;;;;1.55;1.10;;;;;;;;;;4943246;29;20055;-85
2022/05/18 11:41:53;;;;;;;1.20;1.20;;;;;;;;;;4942618;28;20070;-85
2022/05/18 11:44:36;;;;;;;1.65;1.50;;;;;;;;;;4929093;28;20047;-85
2022/05/18 11:47:06;;;;;;;1.85;1.27;;;;;;;;;;4949802;29;20058;-83
2022/05/18 11:49:57;;;;;;;2.80;1.30;;;;;;;;;;4944984;29;20054;-85
2022/05/18 11:52:49;;;;;;;1.25;1.15;;;;;;;;;;4947326;29;20051;-86
2022/05/18 11:55:20;;;;;;;4.18;1.30;;;;;;;;;;4965790;28;20052;-86
2022/05/18 11:57:57;;;;;;;1.20;1.10;;;;;;;;;;4940205;29;20077;-87
2022/05/18 12:00:56;;;;;;;3.53;1.45;;;;;;;;;;4968227;28;20040;-85
2022/05/18 12:03:33;;;;;;;1.17;1.10;;;;;;;;;;4948325;28;20043;-86
2022/05/18 12:06:09;;;;;;;1.83;1.33;;;;;;;;;;4968108;28;20028;-85
2022/05/18 12:08:40;;;;;;;2.85;1.40;;;;;;;;;;4955658;28;20046;-85
2022/05/18 12:11:21;;;;;;;3.85;1.42;;;;;;;;;;4960041;28;20055;-85
2022/05/18 12:14:06;;;;;;;2.35;1.30;;;;;;;;;;4975234;28;20031;-86
2022/05/18 12:16:39;;;;;;;2.75;1.50;;;;;;;;;;4964982;28;20070;-85
2022/05/18 12:19:21;;;;;;;2.05;1.25;;;;;;;;;;4965883;28;20050;-85
2022/05/18 12:21:51;;;;;;;3.00;1.40;;;;;;;;;;4952361;28;20085;-85
2022/05/18 12:24:21;;;;;;;;;;;;;;;;;;4949251;28;20054;-85
2022/05/18 12:26:55;;;;;;;2.35;1.20;;;;;;;;;;4930513;29;19926;-86
2022/05/18 12:29:29;;;;;;;4.30;1.40;;;;;;;;;;4947748;28;20040;-87
2022/05/18 12:31:58;;;;;;;2.25;1.40;;;;;;;;;;4947016;28;20057;-86
2022/05/18 12:34:35;;;;;;;2.15;1.45;;;;;;;;;;4932696;28;20407;-86
2022/05/18 12:37:15;;;;;;;2.33;1.38;;;;;;;;;;4952571;28;20046;-84
2022/05/18 12:39:50;;;;;;;2.45;1.30;;;;;;;;;;4947849;28;20043;-85
2022/05/18 12:42:24;;;;;;;3.35;1.40;;;;;;;;;;4960401;28;20171;-86
2022/05/18 12:45:02;;;;;;;3.17;1.35;;;;;;;;;;4935966;28;20054;-85
2022/05/18 12:47:52;;;;;;;2.90;1.52;;;;;;;;;;4920959;29;20048;-85
2022/05/18 12:50:29;;;;;;;1.42;1.15;;;;;;;;;;4952857;28;20487;-85
2022/05/18 12:52:59;;;;;;;3.25;1.30;;;;;;;;;;4945308;28;20578;-86
2022/05/18 12:55:54;;;;;;;1.75;1.30;;;;;;;;;;4926329;28;20139;-84
2022/05/18 12:58:30;;;;;;;1.35;1.25;;;;;;;;;;4934734;29;20043;-84
2022/05/18 13:01:17;;;;;;;2.85;1.38;;;;;;;;;;4934710;29;20051;-85
2022/05/18 13:03:51;;;;;;;4.95;1.58;;;;;;;;;;4935207;29;20566;-85
2022/05/18 13:06:36;;;;;;;2.67;1.48;;;;;;;;;;4949298;28;20043;-85
2022/05/18 13:09:25;;;;;;;2.78;1.10;;;;;;;;;;4950316;29;20050;-85
2022/05/18 13:12:00;;;;;;;3.08;1.48;;;;;;;;;;4949785;28;20043;-85
2022/05/18 13:14:36;;;;;;;2.30;1.33;;;;;;;;;;4945854;29;20050;-84
2022/05/18 13:17:05;;;;;;;3.85;1.45;;;;;;;;;;4935423;29;20113;-86
2022/05/18 13:19:35;;;;;;;1.83;1.42;;;;;;;;;;4928276;29;20043;-84
2022/05/18 13:22:12;;;;;;;1.03;1.00;;;;;;;;;;4951131;28;20137;-86
2022/05/18 13:24:45;;;;;;;1.95;1.20;;;;;;;;;;4919313;29;20046;-85
2022/05/18 13:27:16;;;;;;;2.85;1.40;;;;;;;;;;4954269;28;20180;-85
2022/05/18 13:29:46;;;;;;;1.42;1.30;;;;;;;;;;4951148;28;20115;-86
2022/05/18 13:32:16;;;;;;;1.55;1.20;;;;;;;;;;4949023;29;20439;-86
2022/05/18 13:34:49;;;;;;;2.17;1.30;;;;;;;;;;4948053;28;20047;-84
2022/05/18 13:37:16;;;;;;;2.75;1.25;;;;;;;;;;4934001;29;20137;-85
2022/05/18 13:40:05;;;;;;;1.83;1.58;;;;;;;;;;4959566;28;20058;-85
2022/05/18 13:42:34;;;;;;;2.08;1.30;;;;;;;;;;4960614;28;20065;-85
2022/05/18 13:45:03;;;;;;;3.30;1.58;;;;;;;;;;4962602;28;20496;-84
2022/05/18 13:47:44;;;;;;;2.83;1.33;;;;;;;;;;4961138;29;20142;-85
2022/05/18 13:50:19;;;;;;;1.77;1.30;;;;;;;;;;4962209;28;20050;-85
2022/05/18 13:52:47;;;;;;;4.00;1.35;;;;;;;;;;4965420;28;20119;-85
2022/05/18 13:55:19;;;;;;;4.22;1.30;;;;;;;;;;4969338;28;20044;-84
2022/05/18 13:57:49;;;;;;;2.22;1.25;;;;;;;;;;4962753;28;20134;-84
2022/05/18 14:00:27;;;;;;;2.20;1.33;;;;;;;;;;4962807;28;20055;-84
2022/05/18 14:02:56;;;;;;;2.75;1.40;;;;;;;;;;4965941;29;20275;-84
2022/05/18 14:05:43;;;;;;;1.65;1.30;;;;;;;;;;4943969;29;20487;-85
2022/05/18 14:08:23;;;;;;;6.53;1.63;;;;;;;;;;4939517;29;20051;-87
2022/05/18 14:11:10;;;;;;;2.90;1.50;;;;;;;;;;4952686;28;20106;-84
2022/05/18 14:13:40;;;;;;;1.50;1.40;;;;;;;;;;4938985;29;20562;-86
2022/05/18 14:16:09;;;;;;;1.85;1.10;;;;;;;;;;4947085;28;20044;-83
2022/05/18 14:18:54;;;;;;;4.47;1.60;;;;;;;;;;4942217;29;20055;-83
2022/05/18 14:21:24;;;;;;;2.45;1.20;;;;;;;;;;4922293;29;20075;-84
2022/05/18 14:23:58;;;;;;;5.28;1.52;;;;;;;;;;4920288;29;20051;-85
2022/05/18 14:26:29;;;;;;;2.75;1.30;;;;;;;;;;4920619;29;20619;-85
2022/05/18 14:28:58;;;;;;;2.20;1.30;;;;;;;;;;4906797;28;20146;-84
2022/05/18 14:31:27;;;;;;;2.40;1.60;;;;;;;;;;4941034;29;20057;-84
2022/05/18 14:34:00;;;;;;;5.25;1.80;;;;;;;;;;4938715;28;20054;-84
2022/05/18 14:36:46;;;;;;;2.35;1.27;;;;;;;;;;4918570;29;20075;-88
2022/05/18 14:39:23;;;;;;;1.35;1.23;;;;;;;;;;4912904;29;20147;-85
2022/05/18 14:41:54;;;;;;;1.77;1.50;;;;;;;;;;4928615;29;20043;-84
2022/05/18 14:44:42;;;;;;;1.95;1.08;;;;;;;;;;4944368;29;20106;-83
2022/05/18 14:47:32;;;;;;;2.42;1.50;;;;;;;;;;4911013;29;20050;-85
2022/05/18 14:50:28;;;;;;;1.52;1.30;;;;;;;;;;4901525;29;20091;-85
2022/05/18 14:53:02;;;;;;;1.30;1.20;;;;;;;;;;4924597;29;20058;-84
2022/05/18 14:55:49;;;;;;;3.30;1.52;;;;;;;;;;4915435;29;20051;-85
2022/05/18 14:58:37;;;;;;;2.88;1.33;;;;;;;;;;4911652;29;20075;-86
2022/05/18 15:01:06;;;;;;;2.47;1.52;;;;;;;;;;4928467;28;20075;-85
2022/05/18 15:03:41;;;;;;;4.75;1.35;;;;;;;;;;4936636;28;20063;-86
2022/05/18 15:06:10;;;;;;;3.50;1.40;;;;;;;;;;4939539;29;20055;-85
2022/05/18 15:08:49;;;;;;;2.72;1.30;;;;;;;;;;4921123;29;20775;-86
2022/05/18 15:11:19;;;;;;;1.77;1.40;;;;;;;;;;4935430;29;20047;-84
2022/05/18 15:13:54;;;;;;;1.40;1.20;;;;;;;;;;4912606;29;20476;-84
2022/05/18 15:16:40;;;;;;;6.45;1.50;;;;;;;;;;4932314;28;20051;-85
2022/05/18 15:19:31;;;;;;;1.45;1.35;;;;;;;;;;4904247;29;20648;-85
2022/05/18 15:22:08;;;;;;;4.97;1.33;;;;;;;;;;4909519;29;20047;-84
2022/05/18 15:24:36;;;;;;;3.97;1.75;;;;;;;;;;4933330;28;20834;-84
2022/05/18 15:27:04;;;;;;;4.88;1.50;;;;;;;;;;4929783;28;20047;-83